.
WxDataArchive / Data Records for 2008-03-17
2008-03-16 March 2008 2008-03-18

Data Records for Monday, 17 March 2008

Time	Temp	Chill	HIndex	Humid	Dewpt	 Wind 	HiWind	WindDir	Rain 	Barom 
-----	----	-----	------	-----	-----	------	------	-------	-----	----- 
00:00	28.4	28.4	28.4	78	22.4	0	1	135	0.00	30.465 
00:05	28.4	28.4	28.4	78	22.4	0	1	135	0.00	30.465 
00:10	28.2	28.2	28.2	78	22.2	0	1	135	0.00	30.467 
00:15	28.2	28.2	28.2	79	22.5	0	0	---	0.00	30.466 
00:20	28.1	28.1	28.1	79	22.4	0	1	135	0.00	30.459 
00:25	28.1	28.1	28.1	79	22.4	0	1	135	0.00	30.457 
00:30	28.1	28.1	28.1	79	22.4	0	1	135	0.00	30.458 
00:35	28.1	28.1	28.1	79	22.4	0	1	135	0.00	30.458 
00:40	28.1	28.1	28.1	79	22.4	0	0	---	0.00	30.456 
00:45	28.1	28.1	28.1	80	22.7	0	1	135	0.00	30.459 
00:50	28.1	28.1	28.1	79	22.4	0	2	135	0.00	30.459 
00:55	28.2	28.2	28.2	79	22.5	0	1	135	0.00	30.466 
01:00	28.4	28.4	28.4	78	22.4	0	2	135	0.00	30.468 
01:05	28.4	28.4	28.4	78	22.4	1	2	135	0.00	30.465 
01:10	28.5	28.5	28.5	78	22.5	1	2	135	0.00	30.461 
01:15	28.7	28.7	28.7	78	22.7	1	3	135	0.00	30.463 
01:20	28.7	28.7	28.7	78	22.7	1	4	68	0.00	30.465 
01:25	28.8	28.8	28.8	78	22.8	1	4	112	0.00	30.466 
01:30	28.8	28.8	28.8	77	22.5	2	4	112	0.00	30.466 
01:35	29.0	29.0	29.0	77	22.7	2	5	112	0.00	30.467 
01:40	29.0	29.0	29.0	77	22.7	2	4	112	0.00	30.468 
01:45	29.1	29.1	29.1	77	22.8	1	4	90	0.00	30.469 
01:50	29.1	29.1	29.1	77	22.8	2	5	90	0.00	30.473 
01:55	29.3	29.3	29.3	77	23.0	2	6	112	0.00	30.477 
02:00	29.4	29.4	29.4	77	23.1	3	5	90	0.00	30.478 
02:05	29.5	29.5	29.5	77	23.2	2	5	90	0.00	30.477 
02:10	29.5	29.5	29.5	77	23.2	3	7	90	0.00	30.479 
02:15	29.7	29.7	29.7	78	23.7	3	6	90	0.00	30.480 
02:20	29.7	29.7	29.7	78	23.7	3	7	90	0.00	30.480 
02:25	29.7	29.7	29.7	78	23.7	3	7	90	0.00	30.481 
02:30	29.7	25.4	29.7	79	24.0	4	6	112	0.00	30.481 
02:35	29.5	29.5	29.5	79	23.8	3	6	112	0.00	30.480 
02:40	29.5	29.5	29.5	80	24.1	2	6	90	0.00	30.480 
02:45	29.4	29.4	29.4	80	24.0	3	7	90	0.00	30.479 
02:50	29.4	29.4	29.4	81	24.3	3	5	90	0.00	30.480 
02:55	29.4	29.4	29.4	81	24.3	3	7	90	0.00	30.481 
03:00	29.3	29.3	29.3	82	24.5	3	7	90	0.00	30.481 
03:05	29.3	29.3	29.3	82	24.5	3	6	112	0.00	30.481 
03:10	29.1	29.1	29.1	83	24.6	3	7	112	0.00	30.483 
03:15	29.1	29.1	29.1	84	24.9	3	5	90	0.00	30.485 
03:20	29.1	29.1	29.1	84	24.9	3	6	112	0.00	30.491 
03:25	29.1	29.1	29.1	85	25.2	3	10	112	0.00	30.488 
03:30	29.1	29.1	29.1	86	25.4	2	5	112	0.00	30.489 
03:35	29.1	29.1	29.1	86	25.4	3	6	112	0.00	30.490 
03:40	29.1	29.1	29.1	87	25.7	3	7	90	0.00	30.494 
03:45	29.3	25.0	29.3	87	25.9	4	8	112	0.00	30.496 
03:50	29.3	25.0	29.3	87	25.9	4	7	112	0.00	30.497 
03:55	29.3	25.0	29.3	87	25.9	4	9	90	0.00	30.497 
04:00	29.3	25.0	29.3	87	25.9	4	10	112	0.00	30.496 
04:05	29.3	25.0	29.3	87	25.9	4	7	90	0.00	30.500 
04:10	29.3	29.3	29.3	87	25.9	3	6	112	0.00	30.501 
04:15	29.3	25.0	29.3	87	25.9	4	8	112	0.00	30.499 
04:20	29.3	23.9	29.3	87	25.9	5	9	112	0.00	30.499 
04:25	29.4	25.1	29.4	86	25.7	4	10	112	0.00	30.499 
04:30	29.4	29.4	29.4	86	25.7	3	7	112	0.00	30.500 
04:35	29.3	29.3	29.3	86	25.6	3	5	112	0.00	30.501 
04:40	29.3	25.0	29.3	86	25.6	4	6	112	0.00	30.499 
04:45	29.3	23.9	29.3	86	25.6	5	12	112	0.00	30.499 
04:50	29.3	29.3	29.3	86	25.6	3	6	90	0.00	30.500 
04:55	29.3	29.3	29.3	86	25.6	3	6	112	0.00	30.501 
05:00	29.3	29.3	29.3	85	25.4	3	7	112	0.00	30.500 
05:05	29.3	29.3	29.3	85	25.4	3	5	112	0.00	30.499 
05:10	29.3	25.0	29.3	85	25.4	4	7	112	0.00	30.498 
05:15	29.3	25.0	29.3	85	25.4	4	6	112	0.00	30.500 
05:20	29.3	29.3	29.3	84	25.1	2	7	112	0.00	30.501 
05:25	29.3	29.3	29.3	84	25.1	3	6	112	0.00	30.503 
05:30	29.3	29.3	29.3	84	25.1	2	6	112	0.00	30.503 
05:35	29.3	29.3	29.3	83	24.8	3	5	112	0.00	30.502 
05:40	29.3	29.3	29.3	83	24.8	3	6	112	0.00	30.498 
05:45	29.3	25.0	29.3	82	24.5	4	9	112	0.00	30.499 
05:50	29.3	29.3	29.3	82	24.5	3	6	90	0.00	30.499 
05:55	29.3	25.0	29.3	81	24.2	4	7	112	0.00	30.500 
06:00	29.3	29.3	29.3	80	23.9	3	6	90	0.00	30.509 
06:05	29.3	29.3	29.3	79	23.6	3	6	112	0.00	30.517 
06:10	29.3	25.0	29.3	78	23.3	4	10	112	0.00	30.517 
06:15	29.3	25.0	29.3	78	23.3	4	9	90	0.00	30.518 
06:20	29.3	29.3	29.3	77	23.0	3	7	112	0.00	30.519 
06:25	29.3	29.3	29.3	77	23.0	3	6	112	0.00	30.523 
06:30	29.3	25.0	29.3	77	23.0	4	7	112	0.00	30.522 
06:35	29.3	25.0	29.3	77	23.0	4	9	112	0.00	30.522 
06:40	29.1	24.7	29.1	77	22.8	4	10	112	0.00	30.518 
06:45	29.1	23.7	29.1	77	22.8	5	9	112	0.00	30.515 
06:50	29.1	24.7	29.1	77	22.8	4	8	112	0.00	30.516 
06:55	29.1	24.7	29.1	77	22.8	4	10	112	0.00	30.517 
07:00	29.1	29.1	29.1	78	23.1	3	6	112	0.00	30.513 
07:05	29.0	24.6	29.0	78	23.0	4	8	112	0.00	30.516 
07:10	29.1	23.7	29.1	78	23.1	5	12	112	0.00	30.510 
07:15	29.1	22.8	29.1	78	23.1	6	12	112	0.00	30.502 
07:20	29.1	24.7	29.1	78	23.1	4	7	112	0.00	30.505 
07:25	29.1	23.7	29.1	77	22.8	5	9	112	0.00	30.506 
07:30	29.0	23.6	29.0	77	22.7	5	8	112	0.00	30.515 
07:35	29.1	24.7	29.1	77	22.8	4	7	112	0.00	30.514 
07:40	29.1	24.7	29.1	76	22.5	4	9	112	0.00	30.522 
07:45	29.1	24.7	29.1	76	22.5	4	9	112	0.00	30.517 
07:50	29.3	25.0	29.3	76	22.7	4	6	90	0.00	30.520 
07:55	29.3	23.0	29.3	75	22.4	6	12	90	0.00	30.520 
08:00	29.4	24.0	29.4	75	22.5	5	10	112	0.00	30.519 
08:05	29.5	29.5	29.5	75	22.6	3	8	112	0.00	30.522 
08:10	29.5	25.2	29.5	74	22.3	4	9	112	0.00	30.528 
08:15	29.7	23.5	29.7	75	22.8	6	12	112	0.00	30.524 
08:20	29.8	25.5	29.8	75	22.9	4	9	112	0.00	30.527 
08:25	30.1	25.9	30.1	74	22.8	4	9	112	0.00	30.521 
08:30	30.4	25.2	30.4	74	23.1	5	10	112	0.00	30.521 
08:35	30.4	24.3	30.4	74	23.1	6	11	112	0.00	30.526 
08:40	30.7	25.5	30.7	74	23.4	5	10	112	0.00	30.524 
08:45	30.7	26.6	30.7	73	23.1	4	10	112	0.00	30.521 
08:50	30.7	26.6	30.7	73	23.1	4	10	90	0.00	30.519 
08:55	30.9	25.8	30.9	72	23.0	5	10	112	0.00	30.520 
09:00	30.7	26.6	30.7	72	22.8	4	10	112	0.00	30.519 
09:05	31.0	31.0	31.0	72	23.1	3	9	112	0.00	30.519 
09:10	31.0	26.9	31.0	72	23.1	4	9	112	0.00	30.519 
09:15	30.9	25.8	30.9	71	22.6	5	11	112	0.00	30.513 
09:20	30.9	26.8	30.9	72	23.0	4	11	112	0.00	30.511 
09:25	30.9	24.9	30.9	72	23.0	6	12	112	0.00	30.509 
09:30	30.9	24.2	30.9	71	22.6	7	13	112	0.00	30.512 
09:35	30.9	25.8	30.9	72	23.0	5	10	112	0.00	30.512 
09:40	31.3	27.3	31.3	72	23.3	4	12	112	0.00	30.505 
09:45	31.9	28.0	31.9	70	23.2	4	12	112	0.00	30.498 
09:50	32.2	28.3	32.2	69	23.2	4	10	112	0.00	30.505 
09:55	32.1	27.2	32.1	68	22.7	5	11	112	0.00	30.499 
10:00	32.1	28.2	32.1	68	22.7	4	9	112	0.00	30.493 
10:05	32.2	27.3	32.2	67	22.5	5	14	112	0.00	30.491 
10:10	32.1	26.3	32.1	67	22.4	6	12	112	0.00	30.480 
10:15	32.4	28.5	32.4	68	23.0	4	10	112	0.00	30.480 
10:20	32.5	26.8	32.5	68	23.1	6	13	112	0.00	30.475 
10:25	32.7	27.1	32.7	68	23.3	6	13	112	0.00	30.478 
10:30	33.1	29.3	33.1	66	23.0	4	9	112	0.00	30.475 
10:35	33.5	28.8	33.5	65	23.0	5	11	112	0.00	30.479 
10:40	33.7	28.3	33.7	65	23.2	6	12	112	0.00	30.474 
10:45	33.7	29.1	33.7	65	23.2	5	11	112	0.00	30.477 
10:50	33.7	29.1	33.7	64	22.8	5	12	112	0.00	30.480 
10:55	33.7	29.1	33.7	65	23.2	5	12	112	0.00	30.479 
11:00	33.4	27.9	33.4	65	22.9	6	13	90	0.00	30.474 
11:05	33.5	28.8	33.5	65	23.0	5	11	90	0.00	30.478 
11:10	33.8	33.8	33.8	65	23.3	3	11	112	0.00	30.485 
11:15	34.1	29.5	34.1	65	23.6	5	11	112	0.00	30.482 
11:20	34.1	30.5	34.1	64	23.2	4	9	112	0.00	30.482 
11:25	34.3	34.3	34.3	65	23.8	3	7	112	0.00	30.482 
11:30	34.4	34.4	34.4	64	23.5	3	9	112	0.00	30.486 
11:35	34.3	30.7	34.3	63	23.0	4	9	90	0.00	30.481 
11:40	34.3	29.8	34.3	64	23.4	5	9	112	0.00	30.469 
11:45	34.3	30.7	34.3	63	23.0	4	10	112	0.00	30.460 
11:50	34.3	29.0	34.3	64	23.4	6	10	112	0.00	30.452 
11:55	34.4	29.9	34.4	64	23.5	5	11	112	0.00	30.441 
12:00	34.7	30.2	34.7	65	24.2	5	11	90	0.00	30.429 
12:05	34.9	29.7	34.9	64	24.0	6	13	112	0.00	30.424 
12:10	34.7	28.8	34.7	64	23.8	7	13	112	0.00	30.411 
12:15	34.7	28.8	34.7	63	23.4	7	12	90	0.00	30.406 
12:20	34.9	29.0	34.9	65	24.3	7	14	112	0.00	30.398 
12:25	34.9	29.7	34.9	64	24.0	6	14	112	0.00	30.405 
12:30	34.7	28.1	34.7	64	23.8	8	15	112	0.00	30.395 
12:35	34.9	29.7	34.9	65	24.3	6	13	112	0.00	30.394 
12:40	34.9	29.7	34.9	65	24.3	6	12	112	0.00	30.395 
12:45	35.2	30.0	35.2	64	24.3	6	11	112	0.00	30.393 
12:50	35.3	29.5	35.3	64	24.4	7	13	112	0.00	30.387 
12:55	35.5	29.7	35.5	65	24.9	7	13	112	0.00	30.388 
13:00	35.9	30.9	35.9	63	24.5	6	15	112	0.00	30.392 
13:05	35.9	29.6	35.9	62	24.2	8	13	112	0.00	30.389 
13:10	35.9	30.9	35.9	62	24.2	6	12	112	0.00	30.388 
13:15	35.9	29.6	35.9	62	24.2	8	13	112	0.00	30.382 
13:20	36.0	30.3	36.0	62	24.3	7	12	112	0.00	30.383 
13:25	36.2	32.0	36.2	62	24.5	5	10	112	0.00	30.377 
13:30	36.6	33.4	36.6	62	24.8	4	9	112	0.00	30.374 
13:35	36.6	31.0	36.6	62	24.8	7	16	112	0.00	30.374 
13:40	36.6	31.7	36.6	64	25.6	6	11	112	0.00	30.376 
13:45	36.6	32.5	36.6	63	25.2	5	10	112	0.00	30.377 
13:50	36.9	32.8	36.9	62	25.1	5	11	112	0.00	30.383 
13:55	37.2	34.1	37.2	63	25.8	4	11	112	0.00	30.381 
14:00	37.2	32.4	37.2	61	25.0	6	12	112	0.00	30.374 
14:05	37.3	32.5	37.3	60	24.7	6	12	90	0.00	30.374 
14:10	37.3	31.9	37.3	60	24.7	7	13	90	0.00	30.374 
14:15	37.3	33.3	37.3	61	25.1	5	12	112	0.00	30.374 
14:20	37.5	33.5	37.5	61	25.3	5	11	112	0.00	30.377 
14:25	37.6	34.5	37.6	61	25.4	4	11	112	0.00	30.377 
14:30	37.6	33.7	37.6	61	25.4	5	16	112	0.00	30.374 
14:35	37.8	33.9	37.8	61	25.6	5	10	112	0.00	30.364 
14:40	37.9	34.9	37.9	61	25.7	4	12	112	0.00	30.366 
14:45	38.0	35.0	38.0	62	26.2	4	8	90	0.00	30.360 
14:50	38.0	34.1	38.0	62	26.2	5	9	112	0.00	30.361 
14:55	38.0	34.1	38.0	62	26.2	5	10	90	0.00	30.359 
15:00	38.2	34.4	38.2	62	26.3	5	11	90	0.00	30.349 
15:05	38.3	35.4	38.3	62	26.4	4	9	112	0.00	30.345 
15:10	38.5	34.7	38.5	62	26.6	5	10	112	0.00	30.340 
15:15	38.3	34.5	38.3	64	27.2	5	11	112	0.00	30.340 
15:20	38.5	35.6	38.5	62	26.6	4	10	112	0.00	30.340 
15:25	38.3	33.1	38.3	62	26.4	7	11	112	0.00	30.341 
15:30	38.3	34.5	38.3	63	26.8	5	10	112	0.00	30.330 
15:35	38.3	34.5	38.3	63	26.8	5	11	112	0.00	30.330 
15:40	38.3	35.4	38.3	63	26.8	4	10	112	0.00	30.325 
15:45	38.2	35.2	38.2	64	27.1	4	7	112	0.00	30.319 
15:50	38.3	35.4	38.3	64	27.2	4	9	112	0.00	30.317 
15:55	38.2	34.4	38.2	64	27.1	5	14	112	0.00	30.315 
16:00	38.2	35.2	38.2	64	27.1	4	10	90	0.00	30.318 
16:05	38.2	35.2	38.2	65	27.5	4	7	112	0.00	30.319 
16:10	38.2	35.2	38.2	64	27.1	4	9	112	0.00	30.314 
16:15	38.2	34.4	38.2	64	27.1	5	11	90	0.00	30.314 
16:20	38.2	35.2	38.2	65	27.5	4	7	112	0.00	30.322 
16:25	38.0	34.1	38.0	64	26.9	5	10	112	0.00	30.320 
16:30	38.2	38.2	38.2	65	27.5	2	4	112	0.00	30.327 
16:35	38.2	38.2	38.2	65	27.5	1	4	112	0.00	30.332 
16:40	38.2	38.2	38.2	65	27.5	3	6	112	0.00	30.338 
16:45	38.0	38.0	38.0	65	27.3	3	7	90	0.00	30.331 
16:50	38.0	38.0	38.0	65	27.3	3	7	112	0.00	30.327 
16:55	37.9	34.9	37.9	67	27.9	4	6	112	0.00	30.326 
17:00	37.3	34.2	37.3	70	28.4	4	6	90	0.00	30.325 
17:05	36.9	36.9	36.9	72	28.7	3	5	112	0.00	30.325 
17:10	36.5	36.5	36.5	74	29.0	3	5	112	0.00	30.327 
17:15	36.2	36.2	36.2	75	29.1	3	5	90	0.00	30.326 
17:20	35.9	35.9	35.9	78	29.7	2	4	90	0.00	30.322 
17:25	35.5	35.5	35.5	80	30.0	3	7	112	0.00	30.315 
17:30	35.2	35.2	35.2	82	30.3	3	6	112	0.00	30.309 
17:35	34.7	34.7	34.7	84	30.4	3	6	112	0.00	30.302 
17:40	34.4	34.4	34.4	86	30.7	2	6	112	0.02	30.298 
17:45	34.3	30.7	34.3	87	30.8	4	6	112	0.00	30.296 
17:50	34.1	34.1	34.1	88	30.9	3	6	112	0.01	30.300 
17:55	34.0	34.0	34.0	88	30.8	3	7	112	0.01	30.312 
18:00	34.0	34.0	34.0	88	30.8	3	7	112	0.00	30.302 
18:05	34.0	29.4	34.0	89	31.1	5	10	112	0.01	30.297 
18:10	34.0	34.0	34.0	89	31.1	3	7	112	0.00	30.297 
18:15	34.0	34.0	34.0	89	31.1	2	4	112	0.01	30.294 
18:20	34.0	34.0	34.0	90	31.4	2	6	90	0.00	30.293 
18:25	33.8	33.8	33.8	90	31.2	2	5	112	0.01	30.285 
18:30	33.8	33.8	33.8	90	31.2	1	4	112	0.01	30.278 
18:35	33.7	33.7	33.7	90	31.1	2	5	112	0.01	30.276 
18:40	33.5	29.8	33.5	91	31.2	4	12	112	0.02	30.268 
18:45	33.5	29.8	33.5	91	31.2	4	10	112	0.01	30.268 
18:50	33.4	28.7	33.4	91	31.1	5	10	112	0.01	30.266 
18:55	33.4	28.7	33.4	92	31.3	5	10	112	0.01	30.267 
19:00	33.4	28.7	33.4	92	31.3	5	12	90	0.00	30.251 
19:05	33.4	28.7	33.4	92	31.3	5	13	112	0.01	30.238 
19:10	33.4	28.7	33.4	92	31.3	5	14	112	0.00	30.243 
19:15	33.4	29.7	33.4	92	31.3	4	10	112	0.00	30.235 
19:20	33.4	29.7	33.4	92	31.3	4	9	112	0.01	30.255 
19:25	33.4	28.7	33.4	92	31.3	5	10	112	0.00	30.255 
19:30	33.5	33.5	33.5	92	31.4	3	9	90	0.00	30.277 
19:35	33.5	29.8	33.5	92	31.4	4	10	112	0.00	30.260 
19:40	33.5	28.0	33.5	91	31.2	6	12	112	0.01	30.225 
19:45	33.4	27.9	33.4	92	31.3	6	15	90	0.00	30.217 
19:50	33.4	28.7	33.4	92	31.3	5	8	112	0.00	30.234 
19:55	33.4	29.7	33.4	92	31.3	4	7	90	0.00	30.226 
20:00	33.4	27.9	33.4	92	31.3	6	11	112	0.00	30.199 
20:05	33.4	27.9	33.4	92	31.3	6	13	90	0.00	30.189 
20:10	33.4	28.7	33.4	92	31.3	5	11	112	0.01	30.185 
20:15	33.4	28.7	33.4	93	31.6	5	11	112	0.00	30.187 
20:20	33.4	28.7	33.4	93	31.6	5	14	90	0.00	30.190 
20:25	33.4	29.7	33.4	93	31.6	4	11	90	0.00	30.202 
20:30	33.4	27.9	33.4	93	31.6	6	12	112	0.00	30.205 
20:35	33.5	29.8	33.5	93	31.7	4	9	112	0.00	30.201 
20:40	33.5	29.8	33.5	93	31.7	4	7	90	0.00	30.197 
20:45	33.5	33.5	33.5	93	31.7	3	7	112	0.00	30.202 
20:50	33.5	33.5	33.5	93	31.7	3	7	112	0.00	30.200 
20:55	33.5	29.8	33.5	93	31.7	4	11	112	0.00	30.202 
21:00	33.5	28.0	33.5	92	31.4	6	14	112	0.00	30.200 
21:05	33.5	28.8	33.5	92	31.4	5	8	90	0.00	30.199 
21:10	33.5	29.8	33.5	92	31.4	4	8	112	0.00	30.197 
21:15	33.7	33.7	33.7	92	31.6	3	6	112	0.00	30.198 
21:20	33.7	30.0	33.7	92	31.6	4	7	90	0.00	30.197 
21:25	33.7	28.3	33.7	92	31.6	6	11	90	0.00	30.181 
21:30	33.7	29.1	33.7	92	31.6	5	11	112	0.00	30.180 
21:35	33.7	33.7	33.7	92	31.6	3	9	112	0.00	30.194 
21:40	33.8	30.2	33.8	92	31.7	4	9	112	0.00	30.193 
21:45	33.8	33.8	33.8	92	31.7	3	7	112	0.00	30.198 
21:50	34.0	34.0	34.0	92	31.9	2	4	112	0.00	30.200 
21:55	34.1	34.1	34.1	92	32.0	3	7	112	0.00	30.197 
22:00	34.1	34.1	34.1	92	32.0	2	5	112	0.00	30.185 
22:05	34.3	34.3	34.3	92	32.2	3	6	112	0.00	30.184 
22:10	34.4	34.4	34.4	92	32.3	2	6	112	0.00	30.184 
22:15	34.4	34.4	34.4	92	32.3	1	4	112	0.00	30.185 
22:20	34.6	34.6	34.6	92	32.5	1	3	112	0.01	30.178 
22:25	34.6	34.6	34.6	92	32.5	0	1	112	0.00	30.200 
22:30	34.4	34.4	34.4	92	32.3	0	1	112	0.00	30.202 
22:35	34.4	34.4	34.4	92	32.3	0	2	112	0.00	30.200 
22:40	34.4	34.4	34.4	92	32.3	1	3	112	0.00	30.200 
22:45	34.4	34.4	34.4	92	32.3	1	3	68	0.00	30.193 
22:50	34.4	34.4	34.4	92	32.3	1	4	90	0.00	30.184 
22:55	34.3	34.3	34.3	92	32.2	2	6	112	0.00	30.170 
23:00	34.1	34.1	34.1	92	32.0	3	5	112	0.00	30.167 
23:05	34.0	34.0	34.0	93	32.2	2	4	90	0.00	30.161 
23:10	34.0	34.0	34.0	93	32.2	2	5	90	0.00	30.161 
23:15	34.0	34.0	34.0	93	32.2	2	4	112	0.00	30.151 
23:20	33.8	33.8	33.8	93	32.0	3	7	112	0.00	30.144 
23:25	33.8	33.8	33.8	93	32.0	3	6	112	0.00	30.137 
23:30	33.8	33.8	33.8	93	32.0	3	5	112	0.00	30.135 
23:35	33.8	30.2	33.8	93	32.0	4	6	90	0.00	30.131 
23:40	33.8	33.8	33.8	93	32.0	3	7	112	0.00	30.120 
23:45	33.8	33.8	33.8	93	32.0	3	7	90	0.00	30.119 
23:50	33.8	30.2	33.8	93	32.0	4	9	112	0.00	30.115 
23:55	34.0	34.0	34.0	93	32.2	3	6	90	0.00	30.109 

CoCoRaHS
IN-AL-39
A2 Web Hosting
Creative Commons License
GoDaddy
Look for:

loaded 2017-10-17 00:10:27 • last modified 2010-11-18 10:43:29
Privacy PolicyDisclaimer
• wx.awcolley.com is powered by PmWiki v.2002016 •
• all content (unless otherwise noted) © 2017 A W Colley